createdAt,value
2023-03-13T00:00:25.689Z,100.00
2023-03-13T00:03:14.824Z,100.00
2023-03-13T00:06:01.209Z,100.00
2023-03-13T00:08:47.916Z,100.00
2023-03-13T00:11:34.858Z,100.00
2023-03-13T00:14:21.274Z,100.00
2023-03-13T00:17:09.455Z,100.00
2023-03-13T00:19:56.096Z,100.00
2023-03-13T00:22:42.737Z,100.00
2023-03-13T00:25:29.395Z,100.00
2023-03-13T00:28:16.142Z,100.00
2023-03-13T00:31:04.207Z,100.00
2023-03-13T00:33:53.861Z,100.00
2023-03-13T00:36:40.990Z,100.00
2023-03-13T00:39:27.490Z,100.00
2023-03-13T00:42:14.320Z,100.00
2023-03-13T00:45:01.141Z,100.00
2023-03-13T00:47:50.097Z,100.00
2023-03-13T00:50:38.028Z,100.00
2023-03-13T00:53:24.881Z,100.00
2023-03-13T00:56:13.244Z,100.00
2023-03-13T00:59:01.656Z,100.00
2023-03-13T01:01:48.926Z,100.00
2023-03-13T01:04:35.533Z,100.00
2023-03-13T01:07:23.745Z,100.00
2023-03-13T01:10:11.573Z,100.00
2023-03-13T01:12:58.488Z,100.00
2023-03-13T01:15:45.134Z,100.00
2023-03-13T01:18:32.143Z,100.00
2023-03-13T01:21:22.375Z,100.00
2023-03-13T01:24:11.298Z,100.00
2023-03-13T01:26:57.943Z,100.00
2023-03-13T01:29:44.619Z,100.00
2023-03-13T01:32:34.594Z,100.00
2023-03-13T01:35:22.502Z,100.00
2023-03-13T01:38:09.536Z,100.00
2023-03-13T01:40:58.098Z,100.00
2023-03-13T01:43:45.699Z,100.00
2023-03-13T01:46:32.818Z,100.00
2023-03-13T01:49:25.300Z,100.00
2023-03-13T01:52:24.853Z,100.00
2023-03-13T01:55:22.343Z,100.00
2023-03-13T01:58:13.022Z,100.00
2023-03-13T02:01:00.635Z,100.00
2023-03-13T02:03:48.288Z,100.00
2023-03-13T02:06:40.039Z,100.00
2023-03-13T02:09:31.298Z,100.00
2023-03-13T02:12:26.836Z,100.00
2023-03-13T02:15:17.515Z,100.00
2023-03-13T02:18:05.220Z,100.00
2023-03-13T02:20:57.783Z,100.00
2023-03-13T02:23:54.486Z,100.00
2023-03-13T02:26:42.483Z,100.00
2023-03-13T02:29:29.272Z,100.00
2023-03-13T02:32:16.634Z,100.00
2023-03-13T02:35:07.801Z,100.00
2023-03-13T02:37:58.286Z,100.00
2023-03-13T02:40:48.157Z,100.00
2023-03-13T02:43:38.023Z,100.00
2023-03-13T02:46:25.989Z,100.00
2023-03-13T02:49:22.238Z,100.00
2023-03-13T02:52:15.281Z,100.00
2023-03-13T02:55:10.055Z,100.00
2023-03-13T02:57:56.709Z,100.00
2023-03-13T03:00:44.796Z,100.00
2023-03-13T03:03:31.453Z,100.00
2023-03-13T03:06:18.270Z,100.00
2023-03-13T03:09:06.290Z,100.00
2023-03-13T03:11:55.464Z,100.00
2023-03-13T03:14:42.627Z,100.00
2023-03-13T03:17:30.833Z,100.00
2023-03-13T03:20:17.509Z,100.00
2023-03-13T03:23:04.357Z,100.00
2023-03-13T03:25:52.161Z,100.00
2023-03-13T03:28:39.008Z,100.00
2023-03-13T03:31:31.523Z,100.00
2023-03-13T03:34:19.846Z,100.00
2023-03-13T03:37:07.171Z,100.00
2023-03-13T03:39:53.936Z,100.00
2023-03-13T03:42:40.606Z,100.00
2023-03-13T03:45:27.263Z,100.00
2023-03-13T03:48:14.266Z,100.00
2023-03-13T03:51:02.333Z,100.00
2023-03-13T03:53:50.984Z,100.00
2023-03-13T03:56:37.903Z,100.00
2023-03-13T03:59:25.253Z,100.00
2023-03-13T04:02:17.764Z,100.00
2023-03-13T04:05:05.428Z,100.00
2023-03-13T04:07:56.041Z,100.00
2023-03-13T04:10:42.728Z,100.00
2023-03-13T04:13:29.497Z,100.00
2023-03-13T04:16:18.330Z,100.00
2023-03-13T04:19:07.546Z,100.00
2023-03-13T04:21:55.275Z,100.00
2023-03-13T04:24:43.422Z,100.00
2023-03-13T04:27:30.384Z,100.00
2023-03-13T04:30:18.727Z,100.00
2023-03-13T04:33:27.129Z,100.00
2023-03-13T04:36:43.030Z,100.00
2023-03-13T04:40:03.775Z,100.00
2023-03-13T04:43:13.816Z,100.00
2023-03-13T04:46:20.335Z,100.00
2023-03-13T04:49:10.080Z,100.00
2023-03-13T04:52:28.317Z,100.00
2023-03-13T04:55:40.597Z,100.00
2023-03-13T04:58:47.033Z,100.00
2023-03-13T05:01:47.356Z,100.00
2023-03-13T05:04:54.205Z,100.00
2023-03-13T05:07:50.521Z,100.00
2023-03-13T05:11:10.550Z,100.00
2023-03-13T05:14:19.530Z,100.00
2023-03-13T05:17:32.361Z,100.00
2023-03-13T05:20:38.089Z,100.00
2023-03-13T05:23:31.542Z,100.00
2023-03-13T05:26:38.445Z,100.00
2023-03-13T05:29:54.145Z,100.00
2023-03-13T05:33:06.925Z,100.00
2023-03-13T05:36:11.845Z,100.00
2023-03-13T05:39:05.755Z,100.00
2023-03-13T05:42:02.737Z,100.00
2023-03-13T05:45:10.058Z,100.00
2023-03-13T05:48:15.614Z,100.00
2023-03-13T05:51:21.289Z,100.00
2023-03-13T05:54:18.808Z,100.00
2023-03-13T05:57:25.745Z,100.00
2023-03-13T06:00:38.753Z,100.00
2023-03-13T06:04:01.210Z,100.00
2023-03-13T06:06:49.780Z,100.00
2023-03-13T06:09:38.154Z,100.00
2023-03-13T06:12:26.390Z,100.00
2023-03-13T06:15:13.402Z,100.00
2023-03-13T06:18:19.186Z,100.00
2023-03-13T06:21:06.229Z,100.00
2023-03-13T06:23:52.887Z,100.00
2023-03-13T06:26:39.638Z,100.00
2023-03-13T06:29:28.305Z,100.00
2023-03-13T06:32:15.033Z,100.00
2023-03-13T06:35:01.693Z,100.00
2023-03-13T06:37:48.396Z,100.00
2023-03-13T06:40:35.236Z,100.00
2023-03-13T06:43:22.583Z,100.00
2023-03-13T06:46:18.448Z,100.00
2023-03-13T06:49:06.210Z,100.00
2023-03-13T06:51:52.753Z,100.00
2023-03-13T06:54:39.721Z,100.00
2023-03-13T06:57:26.523Z,100.00
2023-03-13T07:00:14.121Z,100.00
2023-03-13T07:03:02.020Z,100.00
2023-03-13T07:05:48.920Z,100.00
2023-03-13T07:08:37.015Z,100.00
2023-03-13T07:11:23.801Z,100.00
2023-03-13T07:14:16.960Z,100.00
2023-03-13T07:17:04.116Z,100.00
2023-03-13T07:19:52.399Z,100.00
2023-03-13T07:22:39.446Z,100.00
2023-03-13T07:25:26.745Z,100.00
2023-03-13T07:28:13.542Z,100.00
2023-03-13T07:31:08.454Z,100.00
2023-03-13T07:33:56.635Z,100.00
2023-03-13T07:36:44.509Z,100.00
2023-03-13T07:39:31.321Z,100.00
2023-03-13T07:42:18.089Z,100.00
2023-03-13T07:45:06.513Z,100.00
2023-03-13T07:47:53.258Z,100.00
2023-03-13T07:50:40.169Z,100.00
2023-03-13T07:53:30.902Z,100.00
2023-03-13T07:56:19.275Z,100.00
2023-03-13T07:59:05.678Z,100.00
2023-03-13T08:01:52.479Z,100.00
2023-03-13T08:04:39.150Z,100.00
2023-03-13T08:07:25.705Z,100.00
2023-03-13T08:10:14.142Z,100.00
2023-03-13T08:13:00.877Z,100.00
2023-03-13T08:15:47.582Z,100.00
2023-03-13T08:18:35.844Z,100.00
2023-03-13T08:21:25.457Z,100.00
2023-03-13T08:24:13.381Z,100.00
2023-03-13T08:27:01.582Z,100.00
2023-03-13T08:29:48.406Z,100.00
2023-03-13T08:32:35.357Z,100.00
2023-03-13T08:35:22.558Z,100.00
2023-03-13T08:38:09.361Z,100.00
2023-03-13T08:40:58.310Z,100.00
2023-03-13T08:43:46.935Z,100.00
2023-03-13T08:46:35.818Z,100.00
2023-03-13T08:49:22.645Z,100.00
2023-03-13T08:52:09.653Z,100.00
2023-03-13T08:54:56.260Z,100.00
2023-03-13T08:57:43.070Z,100.00
2023-03-13T09:00:31.334Z,100.00
2023-03-13T09:03:18.644Z,100.00
2023-03-13T09:06:05.934Z,100.00
2023-03-13T09:08:52.992Z,100.00
2023-03-13T09:11:40.460Z,100.00
2023-03-13T09:14:27.410Z,100.00
2023-03-13T09:17:15.353Z,100.00
2023-03-13T09:20:02.177Z,100.00
2023-03-13T09:22:49.042Z,100.00
2023-03-13T09:25:35.752Z,100.00
2023-03-13T09:28:22.888Z,100.00
2023-03-13T09:31:10.450Z,100.00
2023-03-13T09:33:58.504Z,100.00
2023-03-13T09:36:45.234Z,100.00
2023-03-13T09:39:32.299Z,100.00
2023-03-13T09:42:21.777Z,100.00
2023-03-13T09:45:14.789Z,100.00
2023-03-13T09:48:06.833Z,100.00
2023-03-13T09:51:02.818Z,100.00
2023-03-13T09:53:54.625Z,100.00
2023-03-13T09:56:46.653Z,100.00
2023-03-13T09:59:43.686Z,100.00
2023-03-13T10:02:35.121Z,100.00
2023-03-13T10:05:24.238Z,100.00
2023-03-13T10:08:17.330Z,100.00
2023-03-13T10:11:08.008Z,100.00
2023-03-13T10:14:00.889Z,100.00
2023-03-13T10:16:56.398Z,100.00
2023-03-13T10:19:44.660Z,100.00
2023-03-13T10:22:32.976Z,100.00
2023-03-13T10:25:29.759Z,100.00
2023-03-13T10:28:19.415Z,100.00
2023-03-13T10:31:13.475Z,100.00
2023-03-13T10:34:07.980Z,100.00
2023-03-13T10:37:00.459Z,100.00
2023-03-13T10:39:46.803Z,100.00
2023-03-13T10:42:39.343Z,100.00
2023-03-13T10:45:26.427Z,100.00
2023-03-13T10:48:15.392Z,100.00
2023-03-13T10:51:02.575Z,100.00
2023-03-13T10:53:51.568Z,100.00
2023-03-13T10:56:38.141Z,100.00
2023-03-13T10:59:28.073Z,100.00
2023-03-13T11:02:23.799Z,100.00
2023-03-13T11:05:36.153Z,100.00
2023-03-13T11:08:27.388Z,100.00
2023-03-13T11:11:19.607Z,100.00
2023-03-13T11:14:13.878Z,100.00
2023-03-13T11:17:10.987Z,100.00
2023-03-13T11:20:09.402Z,100.00
2023-03-13T11:23:14.620Z,100.00
2023-03-13T11:26:07.742Z,100.00
2023-03-13T11:28:59.627Z,100.00
2023-03-13T11:31:50.412Z,100.00
2023-03-13T11:34:46.230Z,100.00
2023-03-13T11:37:34.862Z,100.00
2023-03-13T11:40:28.253Z,100.00
2023-03-13T11:43:28.522Z,100.00
2023-03-13T11:46:24.314Z,100.00
2023-03-13T11:49:34.070Z,100.00
2023-03-13T11:52:33.226Z,100.00
2023-03-13T11:55:33.440Z,100.00
2023-03-13T11:58:33.243Z,100.00
2023-03-13T12:01:21.854Z,100.00
2023-03-13T12:04:18.668Z,100.00
2023-03-13T12:07:11.560Z,100.00
2023-03-13T12:10:03.421Z,100.00
2023-03-13T12:12:57.409Z,100.00
2023-03-13T12:15:48.000Z,100.00
2023-03-13T12:18:38.567Z,100.00
2023-03-13T12:21:32.281Z,100.00
2023-03-13T12:24:27.645Z,100.00
2023-03-13T12:27:21.150Z,100.00
2023-03-13T12:30:16.561Z,100.00
2023-03-13T12:33:14.632Z,100.00
2023-03-13T12:36:09.241Z,100.00
2023-03-13T12:39:00.024Z,100.00
2023-03-13T12:41:52.447Z,100.00
2023-03-13T12:44:41.201Z,100.00
2023-03-13T12:47:33.063Z,100.00
2023-03-13T12:50:29.812Z,100.00
2023-03-13T12:53:39.923Z,100.00
2023-03-13T12:56:38.679Z,100.00
2023-03-13T12:59:29.963Z,100.00
2023-03-13T13:02:21.559Z,100.00
2023-03-13T13:05:19.138Z,100.00
2023-03-13T13:08:06.343Z,100.00
2023-03-13T13:10:53.032Z,100.00
2023-03-13T13:13:41.135Z,100.00
2023-03-13T13:16:28.871Z,100.00
2023-03-13T13:19:48.522Z,100.00
2023-03-13T13:22:52.858Z,100.00
2023-03-13T13:25:39.708Z,100.00
2023-03-13T13:28:36.635Z,100.00
2023-03-13T13:31:59.566Z,100.00
2023-03-13T13:35:03.004Z,100.00
2023-03-13T13:37:50.307Z,100.00
2023-03-13T13:40:37.274Z,100.00
2023-03-13T13:43:25.518Z,100.00
2023-03-13T13:46:24.913Z,100.00
2023-03-13T13:49:19.525Z,100.00
2023-03-13T13:52:33.488Z,100.00
2023-03-13T13:55:41.922Z,100.00
2023-03-13T13:58:32.476Z,100.00
2023-03-13T14:01:19.590Z,100.00
2023-03-13T14:04:15.743Z,100.00
2023-03-13T14:07:07.139Z,100.00
2023-03-13T14:10:12.430Z,100.00
2023-03-13T14:13:00.575Z,99.48
2023-03-13T14:15:49.014Z,100.00
2023-03-13T14:18:44.937Z,99.63
2023-03-13T14:21:33.233Z,100.00
2023-03-13T14:24:25.111Z,100.00
2023-03-13T14:27:22.722Z,100.00
2023-03-13T14:30:13.413Z,100.00
2023-03-13T14:33:09.500Z,100.00
2023-03-13T14:36:12.208Z,100.00
2023-03-13T14:39:17.184Z,100.00
2023-03-13T14:42:11.090Z,100.00
2023-03-13T14:45:00.256Z,100.00
2023-03-13T14:47:49.920Z,100.00
2023-03-13T14:50:37.854Z,100.00
2023-03-13T14:53:27.306Z,100.00
2023-03-13T14:56:29.955Z,99.87
2023-03-13T14:59:35.873Z,98.75
2023-03-13T15:05:50.305Z,100.00
2023-03-13T15:08:59.492Z,99.41
2023-03-13T15:12:03.846Z,100.00
2023-03-13T15:14:58.214Z,100.00
2023-03-13T15:18:21.698Z,100.00
2023-03-13T15:21:31.529Z,99.68
2023-03-13T15:24:24.852Z,99.77
2023-03-13T15:27:28.312Z,99.29
2023-03-13T15:30:19.652Z,97.42
2023-03-13T15:33:22.389Z,98.03
2023-03-13T15:36:16.759Z,98.32
2023-03-13T15:39:12.634Z,100.00
2023-03-13T15:42:19.602Z,100.00
2023-03-13T15:45:21.853Z,100.00
2023-03-13T15:48:23.644Z,100.00
2023-03-13T15:51:18.043Z,100.00
2023-03-13T15:54:10.172Z,100.00
2023-03-13T15:57:09.555Z,100.00
2023-03-13T16:00:02.432Z,100.00
2023-03-13T16:03:02.087Z,100.00
2023-03-13T16:06:04.837Z,100.00
2023-03-13T16:09:11.221Z,100.00
2023-03-13T16:12:15.128Z,100.00
2023-03-13T16:15:11.234Z,100.00
2023-03-13T16:18:21.182Z,100.00
2023-03-13T16:21:24.485Z,100.00
2023-03-13T16:24:28.716Z,100.00
2023-03-13T16:27:26.210Z,98.58
2023-03-13T16:30:33.686Z,99.37
2023-03-13T16:33:46.194Z,99.40
2023-03-13T16:36:44.692Z,100.00
2023-03-13T16:39:35.387Z,100.00
2023-03-13T16:42:30.350Z,100.00
2023-03-13T16:45:26.428Z,100.00
2023-03-13T16:48:35.304Z,100.00
2023-03-13T16:51:37.539Z,100.00
2023-03-13T16:54:37.093Z,100.00
2023-03-13T16:57:47.923Z,100.00
2023-03-13T17:01:04.370Z,100.00
2023-03-13T17:04:03.745Z,100.00
2023-03-13T17:07:00.755Z,100.00
2023-03-13T17:09:56.162Z,100.00
2023-03-13T17:12:48.300Z,100.00
2023-03-13T17:15:52.373Z,100.00
2023-03-13T17:18:43.428Z,100.00
2023-03-13T17:21:55.464Z,100.00
2023-03-13T17:24:44.791Z,100.00
2023-03-13T17:27:36.389Z,100.00
2023-03-13T17:30:26.891Z,100.00
2023-03-13T17:33:15.379Z,100.00
2023-03-13T17:36:05.497Z,100.00
2023-03-13T17:38:56.778Z,100.00
2023-03-13T17:41:44.928Z,100.00
2023-03-13T17:44:35.802Z,100.00
2023-03-13T17:47:26.513Z,100.00
2023-03-13T17:50:20.785Z,100.00
2023-03-13T17:53:10.189Z,100.00
2023-03-13T17:56:01.989Z,100.00
2023-03-13T17:59:02.180Z,100.00
2023-03-13T18:02:06.909Z,100.00
2023-03-13T18:05:04.719Z,100.00
2023-03-13T18:08:11.415Z,100.00
2023-03-13T18:11:07.851Z,100.00
2023-03-13T18:14:22.000Z,100.00
2023-03-13T18:17:23.326Z,100.00
2023-03-13T18:20:20.832Z,100.00
2023-03-13T18:23:11.173Z,100.00
2023-03-13T18:26:02.696Z,100.00
2023-03-13T18:28:59.961Z,100.00
2023-03-13T18:32:07.766Z,100.00
2023-03-13T18:35:06.799Z,100.00
2023-03-13T18:37:59.331Z,100.00
2023-03-13T18:40:51.241Z,100.00
2023-03-13T18:43:44.309Z,100.00
2023-03-13T18:46:39.164Z,100.00
2023-03-13T18:49:31.782Z,100.00
2023-03-13T18:52:23.845Z,100.00
2023-03-13T18:55:12.582Z,100.00
2023-03-13T18:58:00.646Z,100.00
2023-03-13T19:00:49.266Z,100.00
2023-03-13T19:03:37.961Z,100.00
2023-03-13T19:06:29.062Z,100.00
2023-03-13T19:09:42.264Z,100.00
2023-03-13T19:12:32.445Z,100.00
2023-03-13T19:15:25.765Z,100.00
2023-03-13T19:18:14.354Z,100.00
2023-03-13T19:21:03.104Z,100.00
2023-03-13T19:23:53.386Z,100.00
2023-03-13T19:26:45.331Z,100.00
2023-03-13T19:29:37.629Z,100.00
2023-03-13T19:32:26.219Z,100.00
2023-03-13T19:35:19.268Z,100.00
2023-03-13T19:38:06.605Z,100.00
2023-03-13T19:40:53.519Z,100.00
2023-03-13T19:43:43.088Z,100.00
2023-03-13T19:46:31.121Z,100.00
2023-03-13T19:49:20.330Z,100.00
2023-03-13T19:52:08.463Z,100.00
2023-03-13T19:54:56.293Z,100.00
2023-03-13T19:57:43.345Z,100.00
2023-03-13T20:00:31.370Z,100.00
2023-03-13T20:03:18.229Z,100.00
2023-03-13T20:06:05.448Z,100.00
2023-03-13T20:08:55.534Z,100.00
2023-03-13T20:11:42.308Z,100.00
2023-03-13T20:14:30.631Z,100.00
2023-03-13T20:17:18.519Z,100.00
2023-03-13T20:20:08.543Z,100.00
2023-03-13T20:22:57.196Z,100.00
2023-03-13T20:25:46.098Z,100.00
2023-03-13T20:28:32.924Z,100.00
2023-03-13T20:31:22.047Z,100.00
2023-03-13T20:34:10.043Z,100.00
2023-03-13T20:36:57.279Z,100.00
2023-03-13T20:39:43.856Z,100.00
2023-03-13T20:42:30.603Z,100.00
2023-03-13T20:45:17.576Z,100.00
2023-03-13T20:48:04.009Z,100.00
2023-03-13T20:50:53.705Z,100.00
2023-03-13T20:53:41.763Z,100.00
2023-03-13T20:56:28.612Z,100.00
2023-03-13T20:59:15.283Z,100.00
2023-03-13T21:02:02.375Z,100.00
2023-03-13T21:04:49.249Z,100.00
2023-03-13T21:07:37.375Z,100.00
2023-03-13T21:10:24.125Z,100.00
2023-03-13T21:13:11.851Z,100.00
2023-03-13T21:16:04.500Z,100.00
2023-03-13T21:18:51.962Z,100.00
2023-03-13T21:21:38.764Z,100.00
2023-03-13T21:24:26.962Z,100.00
2023-03-13T21:27:14.361Z,100.00
2023-03-13T21:30:01.055Z,100.00
2023-03-13T21:32:49.017Z,100.00
2023-03-13T21:35:35.907Z,100.00
2023-03-13T21:38:23.166Z,100.00
2023-03-13T21:41:12.889Z,100.00
2023-03-13T21:43:59.569Z,100.00
2023-03-13T21:46:48.817Z,100.00
2023-03-13T21:49:35.682Z,100.00
2023-03-13T21:52:23.455Z,100.00
2023-03-13T21:55:13.145Z,100.00
2023-03-13T21:58:01.161Z,100.00
2023-03-13T22:00:47.918Z,100.00
2023-03-13T22:03:34.717Z,100.00
2023-03-13T22:06:23.506Z,100.00
2023-03-13T22:09:10.014Z,100.00
2023-03-13T22:11:56.641Z,100.00
2023-03-13T22:14:44.874Z,100.00
2023-03-13T22:17:31.637Z,100.00
2023-03-13T22:20:18.564Z,100.00
2023-03-13T22:23:04.945Z,100.00
2023-03-13T22:25:51.800Z,100.00
2023-03-13T22:28:38.713Z,100.00
2023-03-13T22:31:26.513Z,100.00
2023-03-13T22:34:13.369Z,100.00
2023-03-13T22:37:00.345Z,100.00
2023-03-13T22:39:46.801Z,100.00
2023-03-13T22:42:33.636Z,100.00
2023-03-13T22:45:20.934Z,100.00
2023-03-13T22:48:09.181Z,100.00
2023-03-13T22:51:03.281Z,100.00
2023-03-13T22:53:49.928Z,100.00
2023-03-13T22:56:36.888Z,100.00
2023-03-13T22:59:23.354Z,100.00
2023-03-13T23:02:10.140Z,100.00
2023-03-13T23:05:01.293Z,100.00
2023-03-13T23:07:50.393Z,100.00
2023-03-13T23:10:37.200Z,100.00
2023-03-13T23:13:23.547Z,100.00
2023-03-13T23:16:12.199Z,100.00
2023-03-13T23:18:58.856Z,100.00
2023-03-13T23:21:46.951Z,100.00
2023-03-13T23:24:33.595Z,100.00
2023-03-13T23:27:20.380Z,100.00
2023-03-13T23:30:09.799Z,100.00
2023-03-13T23:32:56.570Z,100.00
2023-03-13T23:35:44.071Z,100.00
2023-03-13T23:38:32.168Z,100.00
2023-03-13T23:41:19.952Z,100.00
2023-03-13T23:44:10.130Z,100.00
2023-03-13T23:47:00.704Z,100.00
2023-03-13T23:49:48.956Z,100.00
2023-03-13T23:52:36.251Z,100.00
2023-03-13T23:55:25.479Z,100.00
2023-03-13T23:58:12.395Z,100.00
